Time;durP1;ratioP1;P1;durP2;ratioP2;P2;SDS_P1;SDS_P2;PMS_P1;PMS_P2;Temp;Humidity;BMP_temperature;BMP_pressure;BME280_temperature;BME280_humidity;BME280_pressure;Samples;Min_cycle;Max_cycle;Signal;HPM_P1;HPM_P2
2022/08/02 00:01:42;;;;;;;3.90;2.80;;;13.20;1.00;;;;;;5055686;28;20167;-78
2022/08/02 00:04:08;;;;;;;7.30;2.63;;;13.20;1.00;;;;;;5055168;28;20159;-78
2022/08/02 00:06:34;;;;;;;3.03;2.83;;;13.20;1.00;;;;;;5055470;28;20398;-78
2022/08/02 00:09:00;;;;;;;5.80;2.90;;;13.10;1.00;;;;;;5054520;28;20536;-77
2022/08/02 00:11:25;;;;;;;2.93;2.47;;;13.10;1.00;;;;;;5054912;28;20406;-78
2022/08/02 00:13:51;;;;;;;4.47;2.83;;;13.10;1.00;;;;;;5054196;28;20972;-78
2022/08/02 00:16:17;;;;;;;13.07;4.80;;;13.00;1.00;;;;;;5054631;28;20199;-71
2022/08/02 00:18:43;;;;;;;3.53;3.23;;;13.00;1.00;;;;;;5055189;28;20890;-71
2022/08/02 00:21:09;;;;;;;9.13;3.27;;;13.00;1.00;;;;;;5053458;28;20254;-76
2022/08/02 00:23:35;;;;;;;5.33;2.90;;;13.00;1.00;;;;;;5054214;28;20413;-69
2022/08/02 00:26:00;;;;;;;3.47;2.60;;;13.00;1.00;;;;;;5053461;28;20480;-76
2022/08/02 00:28:26;;;;;;;3.83;2.90;;;13.00;1.00;;;;;;5055042;28;20191;-76
2022/08/02 00:30:52;;;;;;;4.30;3.17;;;13.00;1.00;;;;;;5055256;28;20167;-76
2022/08/02 00:33:18;;;;;;;3.60;2.40;;;13.00;1.00;;;;;;5053658;28;20194;-78
2022/08/02 00:35:46;;;;;;;2.53;2.33;;;13.00;1.00;;;;;;5054973;28;20175;-78
2022/08/02 00:38:12;;;;;;;6.60;3.17;;;13.00;1.00;;;;;;5054035;28;20291;-71
2022/08/02 00:40:38;;;;;;;3.37;2.73;;;12.90;1.00;;;;;;5054290;28;20472;-71
2022/08/02 00:43:09;;;;;;;4.57;2.47;;;12.90;1.00;;;;;;5054939;28;20503;-77
2022/08/02 00:45:37;;;;;;;5.17;2.50;;;12.80;1.00;;;;;;5053567;28;20451;-70
2022/08/02 00:48:03;;;;;;;6.00;2.63;;;12.80;1.00;;;;;;5052808;28;20425;-71
2022/08/02 00:50:29;;;;;;;3.33;3.03;;;12.70;1.00;;;;;;5053456;28;20913;-78
2022/08/02 00:52:56;;;;;;;3.87;2.10;;;12.70;1.00;;;;;;5054906;28;20402;-71
2022/08/02 00:55:22;;;;;;;4.90;3.03;;;12.70;1.00;;;;;;5054628;28;20411;-77
2022/08/02 00:57:47;;;;;;;5.87;2.67;;;12.70;1.00;;;;;;5052875;28;20461;-71
2022/08/02 01:00:17;;;;;;;4.70;2.80;;;12.60;1.00;;;;;;5053611;28;20174;-70
2022/08/02 01:02:42;;;;;;;4.73;2.53;;;12.60;1.00;;;;;;5054539;28;20167;-70
2022/08/02 01:05:09;;;;;;;3.60;2.60;;;12.60;1.00;;;;;;5054465;28;20394;-70
2022/08/02 01:07:35;;;;;;;5.80;3.30;;;12.60;1.00;;;;;;5053576;28;20646;-78
2022/08/02 01:10:01;;;;;;;7.50;2.73;;;12.60;1.00;;;;;;5054383;28;20417;-70
2022/08/02 01:12:27;;;;;;;8.30;3.47;;;12.60;1.00;;;;;;5054307;28;20170;-77
2022/08/02 01:14:55;;;;;;;8.33;3.20;;;12.60;1.00;;;;;;5054449;28;20445;-79
2022/08/02 01:17:49;;;;;;;2.93;2.50;;;12.50;1.00;;;;;;5052723;28;20503;-73
2022/08/02 01:20:35;;;;;;;16.13;3.70;;;12.50;1.00;;;;;;5054247;28;20924;-70
2022/08/02 01:23:30;;;;;;;5.67;2.70;;;12.50;1.00;;;;;;5053339;28;20399;-77
2022/08/02 01:26:08;;;;;;;7.23;3.60;;;12.50;1.00;;;;;;5049910;28;20441;-71
2022/08/02 01:28:39;;;;;;;3.60;2.60;;;12.40;1.00;;;;;;5052961;28;20774;-70
2022/08/02 01:31:24;;;;;;;3.87;2.83;;;12.30;1.00;;;;;;5054027;28;20472;-76
2022/08/02 01:34:03;;;;;;;3.40;2.37;;;12.30;1.00;;;;;;5052471;28;20409;-71
2022/08/02 01:36:54;;;;;;;4.20;2.90;;;12.20;1.00;;;;;;5051044;28;20404;-78
2022/08/02 01:39:25;;;;;;;5.57;2.77;;;12.20;1.00;;;;;;5053758;28;20460;-71
2022/08/02 01:41:53;;;;;;;3.10;2.60;;;12.10;1.00;;;;;;5053822;28;20397;-78
2022/08/02 01:44:21;;;;;;;5.50;2.60;;;12.00;1.00;;;;;;5053875;28;20402;-78
2022/08/02 01:46:48;;;;;;;2.93;2.63;;;11.90;1.00;;;;;;5052834;28;20409;-78
2022/08/02 01:49:17;;;;;;;2.87;2.53;;;11.90;1.00;;;;;;5052522;28;20461;-70
2022/08/02 01:54:32;;;;;;;4.07;2.30;;;11.90;1.00;;;;;;5053251;28;20405;-78
2022/08/02 01:57:00;;;;;;;6.30;2.30;;;11.90;1.00;;;;;;5052615;28;20402;-70
2022/08/02 01:59:28;;;;;;;2.73;2.53;;;11.90;1.00;;;;;;5054278;28;20397;-78
2022/08/02 02:01:56;;;;;;;5.30;2.70;;;11.90;1.00;;;;;;5053635;28;20425;-78
2022/08/02 02:04:23;;;;;;;8.03;2.70;;;11.90;1.00;;;;;;5053377;28;20404;-76
2022/08/02 02:06:50;;;;;;;4.80;2.90;;;11.90;1.00;;;;;;5051581;28;20853;-78
2022/08/02 02:09:16;;;;;;;3.23;2.73;;;11.90;1.00;;;;;;5053104;28;20425;-73
2022/08/02 02:11:44;;;;;;;4.50;3.10;;;11.80;1.00;;;;;;5052904;28;20441;-78
2022/08/02 02:14:11;;;;;;;6.87;3.40;;;11.80;1.00;;;;;;5053184;28;20492;-71
2022/08/02 02:16:39;;;;;;;5.67;2.83;;;11.80;1.00;;;;;;5052302;28;20401;-70
2022/08/02 02:19:08;;;;;;;5.50;3.07;;;11.80;1.00;;;;;;5053196;28;20809;-77
2022/08/02 02:21:34;;;;;;;5.03;2.90;;;11.80;1.00;;;;;;5052234;28;20441;-70
2022/08/02 02:23:59;;;;;;;7.70;3.43;;;11.80;1.00;;;;;;5052091;28;20819;-70
2022/08/02 02:26:27;;;;;;;3.20;2.73;;;11.80;1.00;;;;;;5050765;28;20500;-72
2022/08/02 02:28:54;;;;;;;5.83;2.70;;;11.80;1.00;;;;;;5051354;28;20220;-76
2022/08/02 02:31:20;;;;;;;10.10;3.10;;;11.70;1.00;;;;;;5052587;28;20900;-78
2022/08/02 02:33:55;;;;;;;4.43;3.03;;;11.70;1.00;;;;;;5052884;28;20544;-71
2022/08/02 02:36:22;;;;;;;9.23;3.10;;;11.70;1.00;;;;;;5050848;28;20455;-70
2022/08/02 02:38:50;;;;;;;5.27;3.37;;;11.70;1.00;;;;;;5052666;28;20507;-78
2022/08/02 02:41:17;;;;;;;9.97;3.37;;;11.60;1.00;;;;;;5052957;28;20398;-70
2022/08/02 02:43:44;;;;;;;5.13;3.43;;;11.60;1.00;;;;;;5051667;28;20420;-70
2022/08/02 02:46:11;;;;;;;4.33;3.40;;;11.60;1.00;;;;;;5052038;28;20402;-74
2022/08/02 02:48:38;;;;;;;4.03;3.00;;;11.60;1.00;;;;;;5052051;28;20424;-70
2022/08/02 02:51:04;;;;;;;5.10;3.30;;;11.60;1.00;;;;;;5051584;28;20507;-73
2022/08/02 02:53:31;;;;;;;4.10;2.50;;;11.50;1.00;;;;;;5051648;28;20475;-70
2022/08/02 02:55:57;;;;;;;7.43;2.77;;;11.50;1.00;;;;;;5052580;28;20902;-70
2022/08/02 02:58:24;;;;;;;5.60;3.00;;;11.50;1.00;;;;;;5050756;28;20587;-71
2022/08/02 03:03:37;;;;;;;5.43;2.83;;;11.50;1.00;;;;;;5052911;28;20762;-78
2022/08/02 03:06:03;;;;;;;6.70;3.00;;;11.40;1.00;;;;;;5051247;28;20754;-78
2022/08/02 03:08:29;;;;;;;3.53;2.97;;;11.40;1.00;;;;;;5052593;28;20428;-78
2022/08/02 03:10:55;;;;;;;4.40;3.00;;;11.40;1.00;;;;;;5052679;28;20167;-79
2022/08/02 03:13:21;;;;;;;5.00;3.30;;;11.30;1.00;;;;;;5051381;28;20171;-69
2022/08/02 03:15:52;;;;;;;4.17;3.23;;;11.30;1.00;;;;;;5052516;28;20902;-78
2022/08/02 03:18:38;;;;;;;6.90;3.53;;;11.30;1.00;;;;;;5050637;28;20515;-70
2022/08/02 03:21:06;;;;;;;3.60;3.07;;;11.30;1.00;;;;;;5052490;28;20412;-73
2022/08/02 03:23:33;;;;;;;3.30;3.00;;;11.20;1.00;;;;;;5050869;28;20417;-71
2022/08/02 03:25:59;;;;;;;2.90;2.53;;;11.20;1.00;;;;;;5050931;28;20909;-74
2022/08/02 03:28:25;;;;;;;4.50;3.20;;;11.20;1.00;;;;;;5051054;28;20545;-76
2022/08/02 03:30:52;;;;;;;4.67;3.10;;;11.20;1.00;;;;;;5052412;28;20412;-70
2022/08/02 03:33:18;;;;;;;3.27;3.07;;;11.20;1.00;;;;;;5052442;28;20783;-79
2022/08/02 03:35:47;;;;;;;5.20;3.10;;;11.20;1.00;;;;;;5052293;28;20452;-75
2022/08/02 03:38:15;;;;;;;3.43;3.13;;;11.20;1.00;;;;;;5050249;28;20468;-70
2022/08/02 03:40:43;;;;;;;4.93;3.30;;;11.20;1.00;;;;;;5051838;28;20373;-78
2022/08/02 03:43:10;;;;;;;6.90;3.07;;;11.20;1.00;;;;;;5051344;28;20392;-78
2022/08/02 03:45:40;;;;;;;7.03;3.70;;;11.20;1.00;;;;;;5054030;28;20398;-69
2022/08/02 03:48:07;;;;;;;5.50;4.03;;;11.20;1.00;;;;;;5055043;28;20837;-69
2022/08/02 03:50:35;;;;;;;5.53;3.70;;;11.20;1.00;;;;;;5055084;28;20384;-70
2022/08/02 03:53:01;;;;;;;6.50;4.33;;;11.20;1.00;;;;;;5055958;28;20401;-78
2022/08/02 03:55:27;;;;;;;5.10;4.00;;;11.20;1.00;;;;;;5055848;28;20889;-71
2022/08/02 03:57:53;;;;;;;4.20;3.90;;;11.30;1.00;;;;;;5054644;28;20663;-70
2022/08/02 04:00:21;;;;;;;11.03;6.00;;;11.40;1.00;;;;;;5053897;28;20171;-70
2022/08/02 04:02:47;;;;;;;8.77;3.57;;;11.30;1.00;;;;;;5055701;28;20632;-70
2022/08/02 04:05:14;;;;;;;4.50;3.70;;;11.40;1.00;;;;;;5054258;28;20971;-70
2022/08/02 04:07:40;;;;;;;5.73;3.80;;;11.50;1.00;;;;;;5054687;28;20425;-78
2022/08/02 04:10:06;;;;;;;5.00;4.00;;;11.50;1.00;;;;;;5055534;28;20409;-78
2022/08/02 04:12:31;;;;;;;12.37;3.90;;;11.50;1.00;;;;;;5055479;28;20248;-72
2022/08/02 04:14:58;;;;;;;4.10;2.90;;;11.60;1.00;;;;;;5055560;28;20402;-78
2022/08/02 04:17:26;;;;;;;6.23;4.00;;;11.60;1.00;;;;;;5054339;28;20321;-78
2022/08/02 04:20:07;;;;;;;4.60;4.00;;;11.60;1.00;;;;;;5054711;28;20409;-70
2022/08/02 04:22:57;;;;;;;5.83;3.53;;;11.60;1.00;;;;;;5054191;28;20412;-70
2022/08/02 04:25:24;;;;;;;6.83;3.87;;;11.70;1.00;;;;;;5055173;28;20412;-77
2022/08/02 04:27:51;;;;;;;7.13;3.20;;;11.70;1.00;;;;;;5053031;28;20433;-77
2022/08/02 04:30:17;;;;;;;8.10;4.33;;;11.60;1.00;;;;;;5053975;28;20775;-70
2022/08/02 04:32:44;;;;;;;7.30;4.57;;;11.70;1.00;;;;;;5053759;28;21207;-70
2022/08/02 04:35:10;;;;;;;5.10;3.53;;;11.60;1.00;;;;;;5055129;28;20409;-77
2022/08/02 04:37:40;;;;;;;4.57;3.60;;;11.70;1.00;;;;;;5053281;28;20955;-78
2022/08/02 04:40:10;;;;;;;4.50;4.00;;;11.70;1.00;;;;;;5053701;28;20404;-70
2022/08/02 04:42:36;;;;;;;8.70;4.00;;;11.70;1.00;;;;;;5053658;28;20401;-70
2022/08/02 04:45:03;;;;;;;5.03;4.20;;;11.70;1.00;;;;;;5054998;28;20397;-71
2022/08/02 04:47:29;;;;;;;3.40;3.20;;;11.70;1.00;;;;;;5053800;28;20437;-70
2022/08/02 04:49:55;;;;;;;5.70;3.80;;;11.70;1.00;;;;;;5053775;28;20460;-69
2022/08/02 04:52:20;;;;;;;3.50;3.20;;;11.70;1.00;;;;;;5054815;28;20441;-77
2022/08/02 04:54:46;;;;;;;7.03;3.20;;;11.70;1.00;;;;;;5052856;28;20217;-78
2022/08/02 04:59:56;;;;;;;5.23;3.43;;;11.70;1.00;;;;;;5054845;28;20209;-78
2022/08/02 05:02:22;;;;;;;10.77;4.00;;;11.70;1.00;;;;;;5054630;28;20414;-78
2022/08/02 05:04:47;;;;;;;11.30;4.10;;;11.70;1.00;;;;;;5053324;28;20170;-69
2022/08/02 05:07:13;;;;;;;6.33;4.20;;;11.70;1.00;;;;;;5053479;28;20191;-69
2022/08/02 05:09:39;;;;;;;6.43;3.97;;;11.60;1.00;;;;;;5054411;28;20175;-78
2022/08/02 05:12:05;;;;;;;5.67;4.00;;;11.70;1.00;;;;;;5054194;28;20167;-69
2022/08/02 05:14:31;;;;;;;5.50;4.47;;;11.70;1.00;;;;;;5053747;28;20640;-78
2022/08/02 05:16:57;;;;;;;9.23;4.40;;;11.80;1.00;;;;;;5053402;28;20412;-78
2022/08/02 05:19:22;;;;;;;5.17;4.63;;;11.90;1.00;;;;;;5054185;28;20195;-78
2022/08/02 05:21:48;;;;;;;7.07;4.27;;;12.00;1.00;;;;;;5052690;28;20208;-78
2022/08/02 05:24:14;;;;;;;9.47;5.40;;;12.00;1.00;;;;;;5054241;28;20163;-78
2022/08/02 05:26:39;;;;;;;6.67;3.97;;;12.00;1.00;;;;;;5053209;28;20171;-78
2022/08/02 05:29:05;;;;;;;9.70;4.50;;;12.10;1.00;;;;;;5053952;28;20659;-69
2022/08/02 05:31:31;;;;;;;11.93;4.27;;;12.10;1.00;;;;;;5053603;28;20242;-69
2022/08/02 05:33:56;;;;;;;9.60;4.23;;;12.20;1.00;;;;;;5053807;28;20251;-78
2022/08/02 05:36:22;;;;;;;4.60;3.50;;;12.30;1.00;;;;;;5052099;28;20178;-70
2022/08/02 05:38:49;;;;;;;10.40;4.33;;;12.40;1.00;;;;;;5053589;28;20739;-77
2022/08/02 05:41:17;;;;;;;6.60;3.60;;;12.60;1.00;;;;;;5053869;28;20172;-76
2022/08/02 05:43:44;;;;;;;5.43;3.17;;;12.70;1.00;;;;;;5053746;28;20944;-71
2022/08/02 05:46:09;;;;;;;6.57;3.60;;;12.80;1.00;;;;;;5052868;28;20493;-71
2022/08/02 05:48:35;;;;;;;7.90;3.00;;;12.90;1.00;;;;;;5052422;28;20853;-66
2022/08/02 05:51:08;;;;;;;6.43;3.07;;;13.00;1.00;;;;;;5053816;28;20171;-66
2022/08/02 05:53:44;;;;;;;4.73;2.17;;;13.10;1.00;;;;;;5053718;28;20170;-75
2022/08/02 05:56:18;;;;;;;5.73;2.50;;;13.10;1.00;;;;;;5052675;28;20437;-75
2022/08/02 05:58:53;;;;;;;5.40;2.77;;;13.20;1.00;;;;;;5053329;28;20449;-66
2022/08/02 06:01:31;;;;;;;5.87;2.93;;;13.30;1.00;;;;;;5053444;28;20385;-75
2022/08/02 06:03:59;;;;;;;6.67;2.87;;;13.30;1.00;;;;;;5053295;28;20401;-73
2022/08/02 06:06:26;;;;;;;2.80;2.33;;;13.40;1.00;;;;;;5052420;28;20444;-66
2022/08/02 06:08:59;;;;;;;5.43;2.60;;;13.50;1.00;;;;;;5052333;28;20413;-65
2022/08/02 06:11:37;;;;;;;5.77;2.60;;;13.60;1.00;;;;;;5052005;28;20413;-66
2022/08/02 06:14:05;;;;;;;6.33;2.27;;;13.70;1.00;;;;;;5053066;28;20424;-74
2022/08/02 06:16:31;;;;;;;6.90;3.40;;;13.80;1.00;;;;;;5052415;28;20401;-77
2022/08/02 06:18:57;;;;;;;2.90;2.70;;;13.80;1.00;;;;;;5053134;28;20434;-66
2022/08/02 06:21:25;;;;;;;3.03;2.40;;;13.90;1.00;;;;;;5053096;28;20401;-76
2022/08/02 06:23:51;;;;;;;4.40;2.30;;;14.00;1.00;;;;;;5052767;28;20406;-76
2022/08/02 06:26:17;;;;;;;6.90;2.20;;;14.10;1.00;;;;;;5052050;28;20416;-77
2022/08/02 06:28:44;;;;;;;11.03;1.83;;;14.20;1.00;;;;;;5051985;28;20574;-66
2022/08/02 06:31:13;;;;;;;4.93;3.17;;;14.20;1.00;;;;;;5053045;28;20440;-67
2022/08/02 06:33:39;;;;;;;5.20;1.77;;;14.20;1.00;;;;;;5053109;28;20488;-66
2022/08/02 06:36:04;;;;;;;2.50;1.77;;;14.30;1.00;;;;;;5051283;28;20575;-76
2022/08/02 06:38:37;;;;;;;5.70;1.90;;;14.30;1.00;;;;;;5052520;28;20202;-66
2022/08/02 06:41:06;;;;;;;3.17;2.10;;;14.40;1.00;;;;;;5053025;28;20254;-73
2022/08/02 06:43:51;;;;;;;12.87;2.50;;;14.50;1.00;;;;;;5053113;28;20896;-76
2022/08/02 06:46:16;;;;;;;2.37;2.17;;;14.60;1.00;;;;;;5051781;28;20393;-67
2022/08/02 06:48:42;;;;;;;8.20;1.60;;;14.70;1.00;;;;;;5052671;28;20948;-75
2022/08/02 06:51:07;;;;;;;2.73;1.93;;;14.70;1.00;;;;;;5052804;28;20289;-67
2022/08/02 06:53:33;;;;;;;1.80;1.70;;;14.70;1.00;;;;;;5052973;28;20163;-67
2022/08/02 06:56:00;;;;;;;6.03;2.20;;;14.80;1.00;;;;;;5051379;28;20634;-76
2022/08/02 06:58:25;;;;;;;2.63;1.90;;;14.90;1.00;;;;;;5052482;28;20206;-67
2022/08/02 07:00:51;;;;;;;12.40;2.33;;;14.90;1.00;;;;;;5052768;28;20917;-66
2022/08/02 07:03:17;;;;;;;8.20;2.37;;;14.90;1.00;;;;;;5052118;28;20172;-66
2022/08/02 07:05:47;;;;;;;2.50;1.73;;;15.00;1.00;;;;;;5052706;28;20179;-76
2022/08/02 07:08:16;;;;;;;7.57;3.57;;;15.10;1.00;;;;;;5052215;28;20417;-66
2022/08/02 07:10:42;;;;;;;2.90;2.70;;;15.00;1.00;;;;;;5051444;28;20917;-67
2022/08/02 07:13:08;;;;;;;3.67;2.10;;;15.10;1.00;;;;;;5052542;28;20413;-77
2022/08/02 07:15:35;;;;;;;6.73;2.20;;;15.20;1.00;;;;;;5051726;28;20201;-76
2022/08/02 07:18:01;;;;;;;4.80;1.97;;;15.20;1.00;;;;;;5051690;28;20463;-75
2022/08/02 07:20:26;;;;;;;8.17;2.33;;;15.30;1.00;;;;;;5053522;28;20480;-67
2022/08/02 07:22:52;;;;;;;6.70;2.93;;;15.40;1.00;;;;;;5056454;28;20194;-76
2022/08/02 07:25:18;;;;;;;4.13;2.13;;;15.50;1.00;;;;;;5056321;28;20171;-68
2022/08/02 07:27:43;;;;;;;4.13;2.00;;;15.60;1.00;;;;;;5055633;28;20220;-67
2022/08/02 07:30:10;;;;;;;8.73;2.20;;;15.60;1.00;;;;;;5056449;28;20174;-71
2022/08/02 07:32:35;;;;;;;6.03;2.00;;;15.60;1.00;;;;;;5056109;28;20202;-70
2022/08/02 07:35:02;;;;;;;11.43;2.87;;;15.70;1.00;;;;;;5056271;28;20422;-73
2022/08/02 07:37:30;;;;;;;3.00;2.23;;;15.80;1.00;;;;;;5055494;28;20206;-71
2022/08/02 07:39:56;;;;;;;3.33;2.33;;;15.80;1.00;;;;;;5055400;28;20409;-70
2022/08/02 07:42:22;;;;;;;6.07;2.33;;;15.80;1.00;;;;;;5056099;28;20401;-72
2022/08/02 07:44:48;;;;;;;6.23;2.33;;;15.80;1.00;;;;;;5055950;28;20167;-72
2022/08/02 07:47:13;;;;;;;9.53;2.40;;;15.90;1.00;;;;;;5055384;28;20425;-75
2022/08/02 07:49:39;;;;;;;5.13;2.13;;;16.00;1.00;;;;;;5056047;28;20163;-75
2022/08/02 07:52:05;;;;;;;4.83;2.17;;;16.10;1.00;;;;;;5055931;28;20163;-68
2022/08/02 07:54:30;;;;;;;4.73;2.33;;;16.10;1.00;;;;;;5056013;28;20632;-74
2022/08/02 07:56:56;;;;;;;2.53;2.33;;;16.10;1.00;;;;;;5054774;28;20170;-73
2022/08/02 07:59:22;;;;;;;4.23;2.77;;;16.10;1.00;;;;;;5055226;28;20230;-74
2022/08/02 08:01:48;;;;;;;6.40;2.77;;;16.20;1.00;;;;;;5055554;28;20174;-69
2022/08/02 08:04:18;;;;;;;4.30;2.23;;;16.30;1.00;;;;;;5055887;28;20242;-68
2022/08/02 08:06:48;;;;;;;7.60;2.30;;;16.40;1.00;;;;;;5054949;28;20397;-75
2022/08/02 08:09:14;;;;;;;2.53;2.13;;;16.40;1.00;;;;;;5055343;28;20425;-69
2022/08/02 08:11:39;;;;;;;4.07;2.40;;;16.50;1.00;;;;;;5055567;28;20409;-76
2022/08/02 08:14:05;;;;;;;4.80;2.30;;;16.60;1.00;;;;;;5054379;28;20206;-75
2022/08/02 08:16:31;;;;;;;4.53;2.30;;;16.70;1.00;;;;;;5054850;28;20257;-68
2022/08/02 08:18:57;;;;;;;5.60;2.43;;;16.80;1.00;;;;;;5055271;28;20524;-75
2022/08/02 08:21:23;;;;;;;3.87;1.63;;;17.00;1.00;;;;;;5055417;28;20412;-75
2022/08/02 08:23:49;;;;;;;6.67;2.03;;;17.00;1.00;;;;;;5055000;28;20484;-75
2022/08/02 08:26:15;;;;;;;4.03;1.97;;;17.10;1.00;;;;;;5054648;28;20527;-68
2022/08/02 08:28:41;;;;;;;6.10;2.20;;;17.20;1.00;;;;;;5055195;28;20186;-68
2022/08/02 08:31:06;;;;;;;5.70;1.60;;;17.30;1.00;;;;;;5054178;28;20177;-67
2022/08/02 08:33:32;;;;;;;4.20;2.90;;;17.30;1.00;;;;;;5055104;28;20413;-68
2022/08/02 08:35:58;;;;;;;4.40;2.00;;;17.50;1.00;;;;;;5053605;28;20177;-75
2022/08/02 08:38:24;;;;;;;4.80;2.07;;;17.50;1.00;;;;;;5054591;28;20210;-75
2022/08/02 08:40:50;;;;;;;2.33;2.13;;;17.60;1.00;;;;;;5055078;28;20170;-68
2022/08/02 08:43:16;;;;;;;5.53;1.90;;;17.60;1.00;;;;;;5055012;28;20208;-75
2022/08/02 08:45:45;;;;;;;5.97;2.30;;;17.50;1.00;;;;;;5054874;28;20876;-74
2022/08/02 08:48:12;;;;;;;4.50;1.80;;;17.60;1.00;;;;;;5054037;28;20486;-73
2022/08/02 08:51:01;;;;;;;3.50;1.50;;;17.80;1.00;;;;;;5054526;28;20405;-67
2022/08/02 08:53:30;;;;;;;8.43;1.83;;;17.90;1.00;;;;;;5054350;28;20504;-75
2022/08/02 08:55:57;;;;;;;1.50;1.40;;;17.90;1.00;;;;;;5054610;28;20401;-67
2022/08/02 08:58:23;;;;;;;2.07;1.50;;;18.00;1.00;;;;;;5054067;28;20449;-75
2022/08/02 09:00:49;;;;;;;10.03;2.80;;;18.10;99.90;;;;;;5054591;28;20455;-76
2022/08/02 09:03:14;;;;;;;5.90;1.40;;;18.30;99.90;;;;;;5054725;28;20186;-66
2022/08/02 09:05:41;;;;;;;4.57;1.53;;;18.60;99.90;;;;;;5054462;28;20860;-75
2022/08/02 09:08:07;;;;;;;4.17;1.40;;;18.80;99.90;;;;;;5053716;28;20655;-71
2022/08/02 09:10:43;;;;;;;5.03;1.40;;;19.10;99.90;;;;;;5053910;28;20909;-75
2022/08/02 09:13:16;;;;;;;3.27;1.50;;;19.30;99.90;;;;;;5054458;28;20912;-74
2022/08/02 09:15:44;;;;;;;3.43;1.60;;;19.70;99.90;;;;;;5054237;28;20458;-66
2022/08/02 09:18:11;;;;;;;3.93;2.30;;;19.80;99.90;;;;;;5053848;28;20460;-75
2022/08/02 09:20:57;;;;;;;4.73;1.60;;;19.90;99.90;;;;;;5054501;28;20393;-66
2022/08/02 09:23:25;;;;;;;3.80;2.10;;;19.90;99.90;;;;;;5054272;28;20881;-73
2022/08/02 09:26:18;;;;;;;3.80;1.43;;;20.00;99.90;;;;;;5053908;28;20397;-73
2022/08/02 09:28:48;;;;;;;3.10;2.17;;;20.10;99.90;;;;;;5053636;28;20949;-74
2022/08/02 09:31:20;;;;;;;2.90;1.77;;;20.10;99.90;;;;;;5054118;28;20417;-73
2022/08/02 09:33:54;;;;;;;4.10;1.70;;;20.20;99.90;;;;;;5053836;28;20421;-67
2022/08/02 09:36:21;;;;;;;3.23;1.50;;;20.40;99.90;;;;;;5053313;28;20413;-74
2022/08/02 09:39:01;;;;;;;3.23;1.37;;;20.70;99.90;;;;;;5053651;28;20461;-67
2022/08/02 09:41:28;;;;;;;2.00;1.40;;;21.00;99.90;;;;;;5053855;28;20882;-73
2022/08/02 09:43:56;;;;;;;3.03;1.23;;;21.00;99.90;;;;;;5052396;28;20397;-75
2022/08/02 09:46:28;;;;;;;3.10;1.40;;;21.20;99.90;;;;;;5053039;28;20398;-66
2022/08/02 09:49:18;;;;;;;2.33;1.77;;;21.20;99.90;;;;;;5053521;28;20940;-74
2022/08/02 09:51:45;;;;;;;4.33;1.83;;;21.40;99.90;;;;;;5053973;28;20439;-71
2022/08/02 09:54:16;;;;;;;2.40;1.30;;;21.70;99.90;;;;;;5053499;28;20397;-67
2022/08/02 09:56:49;;;;;;;3.40;1.37;;;21.90;99.90;;;;;;5052004;28;20410;-69
2022/08/02 09:59:17;;;;;;;4.77;1.80;;;22.10;99.90;;;;;;5053480;28;20489;-65
2022/08/02 10:01:45;;;;;;;5.77;2.50;;;22.30;99.90;;;;;;5053482;28;20401;-66
2022/08/02 10:04:12;;;;;;;3.27;1.30;;;22.50;99.90;;;;;;5052746;28;20406;-74
2022/08/02 10:06:39;;;;;;;5.27;2.67;;;22.80;99.90;;;;;;5052899;28;20401;-66
2022/08/02 10:09:11;;;;;;;2.23;1.20;;;23.10;99.90;;;;;;5053288;28;20418;-75
2022/08/02 10:11:37;;;;;;;1.37;1.00;;;23.40;99.90;;;;;;5053369;28;20396;-76
2022/08/02 10:14:04;;;;;;;6.17;1.17;;;23.60;99.90;;;;;;5053338;28;20556;-73
2022/08/02 10:16:33;;;;;;;2.70;1.30;;;23.80;99.90;;;;;;5052684;28;20413;-67
2022/08/02 10:19:00;;;;;;;2.90;1.73;;;24.20;99.90;;;;;;5053076;28;20449;-66
2022/08/02 10:21:32;;;;;;;2.20;1.10;;;24.60;99.90;;;;;;5052714;28;20927;-67
2022/08/02 10:24:13;;;;;;;3.47;1.30;;;25.10;99.90;;;;;;5053081;28;20393;-67
2022/08/02 10:26:42;;;;;;;3.10;1.20;;;25.40;99.90;;;;;;5052620;28;20392;-75
2022/08/02 10:29:09;;;;;;;2.97;1.40;;;25.40;99.90;;;;;;5053120;28;20422;-75
2022/08/02 10:31:42;;;;;;;2.17;1.00;;;25.20;99.90;;;;;;5053057;28;20402;-67
2022/08/02 10:34:28;;;;;;;4.80;1.23;;;25.30;99.90;;;;;;5052909;28;20894;-75
2022/08/02 10:36:55;;;;;;;2.53;1.23;;;25.20;99.90;;;;;;5052190;28;20531;-75
2022/08/02 10:39:21;;;;;;;1.97;1.30;;;25.40;99.90;;;;;;5052778;28;20506;-74
2022/08/02 10:41:51;;;;;;;3.30;1.27;;;25.80;99.90;;;;;;5052502;28;20484;-66
2022/08/02 10:44:26;;;;;;;3.93;1.27;;;26.10;99.90;;;;;;5052698;28;20531;-75
2022/08/02 10:47:11;;;;;;;2.60;1.10;;;26.00;99.90;;;;;;5052266;28;20448;-67
2022/08/02 10:49:57;;;;;;;6.00;1.50;;;26.20;99.90;;;;;;5052886;28;20417;-75
2022/08/02 10:52:24;;;;;;;4.30;1.13;;;26.40;99.90;;;;;;5052745;28;20929;-67
2022/08/02 10:55:22;;;;;;;3.77;1.03;;;26.70;99.90;;;;;;5055103;28;20405;-67
2022/08/02 10:58:18;;;;;;;3.00;1.13;;;26.60;99.90;;;;;;5054842;28;20461;-76
2022/08/02 11:00:43;;;;;;;5.53;1.30;;;26.80;99.90;;;;;;5056328;28;20410;-70
2022/08/02 11:03:27;;;;;;;1.53;1.07;;;27.10;99.90;;;;;;5056996;28;20389;-76
2022/08/02 11:06:05;;;;;;;3.37;1.00;;;26.90;99.90;;;;;;5056726;28;20250;-69
2022/08/02 11:08:31;;;;;;;4.10;1.20;;;27.30;99.90;;;;;;5055459;28;20432;-69
2022/08/02 11:11:08;;;;;;;9.13;1.30;;;27.70;99.90;;;;;;5057610;28;20750;-76
2022/08/02 11:13:59;;;;;;;3.37;1.20;;;27.80;99.90;;;;;;5056560;28;20411;-70
2022/08/02 11:16:56;;;;;;;2.13;1.27;;;27.90;99.90;;;;;;5054380;28;20856;-70
2022/08/02 11:19:26;;;;;;;2.07;0.90;;;27.90;99.90;;;;;;5055133;28;20456;-69
2022/08/02 11:22:13;;;;;;;4.63;1.10;;;28.00;99.90;;;;;;5056599;28;20451;-77
2022/08/02 11:24:40;;;;;;;2.30;1.20;;;28.20;99.90;;;;;;5056486;28;20431;-71
2022/08/02 11:27:08;;;;;;;1.07;0.73;;;28.70;99.90;;;;;;5055702;28;20411;-70
2022/08/02 11:29:43;;;;;;;5.00;0.80;;;29.30;99.90;;;;;;5056377;28;20818;-70
2022/08/02 11:32:17;;;;;;;1.90;0.90;;;29.60;99.90;;;;;;5056270;28;20491;-70
2022/08/02 11:34:45;;;;;;;1.93;0.90;;;29.50;99.90;;;;;;5055637;28;20402;-71
2022/08/02 11:37:11;;;;;;;3.53;1.30;;;29.30;99.90;;;;;;5055599;28;20824;-77
2022/08/02 11:39:37;;;;;;;3.13;0.90;;;29.30;99.90;;;;;;5055996;28;20978;-70
2022/08/02 11:42:03;;;;;;;1.63;0.87;;;29.60;99.90;;;;;;5056284;28;20397;-76
2022/08/02 11:44:39;;;;;;;5.80;1.60;;;29.70;99.90;;;;;;5054799;28;20163;-76
2022/08/02 11:47:05;;;;;;;1.40;1.03;;;29.00;99.90;;;;;;5055233;28;20454;-76
2022/08/02 11:49:31;;;;;;;1.67;0.80;;;28.50;99.90;;;;;;5056024;28;20411;-70
2022/08/02 11:52:03;;;;;;;2.83;1.20;;;28.70;99.90;;;;;;5056006;28;20405;-69
2022/08/02 11:54:33;;;;;;;1.73;1.37;;;29.00;99.90;;;;;;5054192;28;20205;-70
2022/08/02 11:57:18;;;;;;;3.03;1.00;;;29.20;99.90;;;;;;5055009;28;20929;-71
2022/08/02 11:59:44;;;;;;;3.67;1.03;;;29.00;99.90;;;;;;5055725;28;20452;-77
2022/08/02 12:02:11;;;;;;;3.23;1.27;;;28.90;99.90;;;;;;5055833;28;20492;-76
2022/08/02 12:04:38;;;;;;;2.83;0.97;;;28.50;99.90;;;;;;5055852;28;20483;-77
2022/08/02 12:07:05;;;;;;;3.13;0.90;;;28.10;99.90;;;;;;5054147;28;20411;-70
2022/08/02 12:09:32;;;;;;;1.90;1.10;;;28.10;99.90;;;;;;5055622;28;20400;-76
2022/08/02 12:11:59;;;;;;;5.97;1.27;;;28.20;99.90;;;;;;5055116;28;20397;-76
2022/08/02 12:14:26;;;;;;;2.23;1.00;;;28.10;99.90;;;;;;5054280;28;20414;-76
2022/08/02 12:19:37;;;;;;;5.40;1.13;;;28.10;99.90;;;;;;5055314;28;20499;-77
2022/08/02 12:22:10;;;;;;;4.40;1.43;;;28.40;99.90;;;;;;5055448;28;20396;-76
2022/08/02 12:24:36;;;;;;;2.10;1.00;;;28.40;99.90;;;;;;5055422;28;20944;-77
2022/08/02 12:27:02;;;;;;;1.40;0.80;;;28.20;99.90;;;;;;5054528;28;20409;-76
2022/08/02 12:29:33;;;;;;;2.40;1.00;;;28.30;99.90;;;;;;5054869;28;20485;-71
2022/08/02 12:31:59;;;;;;;2.73;0.97;;;28.60;99.90;;;;;;5053798;28;20181;-77
2022/08/02 12:34:27;;;;;;;2.23;1.47;;;28.50;99.90;;;;;;5055201;28;20841;-76
2022/08/02 12:37:07;;;;;;;1.80;1.17;;;28.20;99.90;;;;;;5052846;28;20880;-76
2022/08/02 12:39:40;;;;;;;3.33;0.90;;;27.90;99.90;;;;;;5055128;28;20453;-76
2022/08/02 12:42:08;;;;;;;1.80;0.80;;;28.20;99.90;;;;;;5054963;28;20492;-75
2022/08/02 12:44:57;;;;;;;4.40;1.00;;;28.30;99.90;;;;;;5055046;28;20390;-69
2022/08/02 12:47:23;;;;;;;1.47;1.10;;;28.10;99.90;;;;;;5051859;28;20430;-71
2022/08/02 12:50:11;;;;;;;4.20;1.20;;;28.00;99.90;;;;;;5052966;28;20418;-70
2022/08/02 12:52:37;;;;;;;2.70;0.90;;;28.40;99.90;;;;;;5054828;28;20402;-76
2022/08/02 12:55:26;;;;;;;3.03;1.10;;;28.60;99.90;;;;;;5054952;28;20431;-71
2022/08/02 12:58:03;;;;;;;3.50;1.10;;;28.20;99.90;;;;;;5054055;28;20199;-76
2022/08/02 13:00:31;;;;;;;1.73;0.80;;;27.60;99.90;;;;;;5053776;28;20405;-76
2022/08/02 13:02:58;;;;;;;1.63;0.90;;;27.40;99.90;;;;;;5053695;28;20489;-74
2022/08/02 13:05:25;;;;;;;1.87;1.00;;;27.10;99.90;;;;;;5054474;28;20535;-76
2022/08/02 13:07:51;;;;;;;2.83;1.30;;;26.80;99.90;;;;;;5052001;28;20449;-74
2022/08/02 13:10:19;;;;;;;2.60;1.00;;;26.30;99.90;;;;;;5053237;28;20417;-69
2022/08/02 13:12:45;;;;;;;4.70;1.10;;;26.00;99.90;;;;;;5053221;28;20409;-75
2022/08/02 13:15:10;;;;;;;3.10;1.17;;;25.90;99.90;;;;;;5053259;28;20467;-70